Tropical Cyclones
[Index]
Main Index Home Page Stock Weather Photos Extreme Storms Discussion Storm News and Storm Chasing Reports Tropical Cyclones / Hurricanes / Typhoons Weather Data and Links Wild Fires / Bushfires Weather Observation Techniques Weather Picture Catalogue Tornado Pictures and Reports Stock Video Footage and DVDs for sale
Season 2004-2005 Tropical Cyclone WILLY Track Map
Season 2004-2005 Summaries: [BoM-AU] [JTWC-AU] [JTWC-SIO] [JTWC-SPAC] [JTWC-SH]
<<- Previous TC | JTWC 2004-2005 Season | Next TC ->>

click for intensity scale information  Lat/long Grid: Show Hide

 Date Labels: Show Hide

Joint Typhoon Warning Centre Cyclone Data

Name: WILLY

08 Mar 2005 18:00 UTC to 14 Mar 2005 00:00 UTC

    date/time    lat    long     hPa   cat  kts
2005-03-08 18   13.5   119.8    1006         15          
2005-03-09 00   13.6   119.3    1004         20          
2005-03-09 06   13.7   118.7    1004         20          
2005-03-09 12   13.8   118.0    1002         25          
2005-03-09 18   14.0   117.2     997         35          
2005-03-10 00   14.2   116.4     991    1    45          
2005-03-10 06   14.5   115.6     987    1    50          
2005-03-10 06   14.5   115.6     987    1    50          
2005-03-10 12   15.0   114.9     984    2    55          
2005-03-10 12   15.0   114.9     984    2    55          
2005-03-10 18   15.6   114.4     976    2    65          
2005-03-10 18   15.6   114.4     976    2    65          
2005-03-11 00   16.1   113.6     967    3    75          
2005-03-11 00   16.1   113.6     967    3    75          
2005-03-11 00   16.1   113.6     967    3    75          
2005-03-11 06   16.6   112.7     958    3    85          
2005-03-11 06   16.6   112.7     958    3    85          
2005-03-11 06   16.6   112.7     958    3    85          
2005-03-11 12   17.3   112.1     954    3    90          
2005-03-11 12   17.3   112.1     954    3    90          
2005-03-11 12   17.3   112.1     954    3    90          
2005-03-11 18   18.0   111.5     954    3    90          
2005-03-11 18   18.0   111.5     954    3    90          
2005-03-11 18   18.0   111.5     954    3    90          
2005-03-12 00   18.7   110.9     958    3    85          
2005-03-12 00   18.7   110.9     958    3    85          
2005-03-12 00   18.7   110.9     958    3    85          
2005-03-12 06   19.4   110.3     963    3    80          
2005-03-12 06   19.4   110.3     963    3    80          
2005-03-12 06   19.4   110.3     963    3    80          
2005-03-12 12   20.1   109.8     967    3    75          
2005-03-12 12   20.1   109.8     967    3    75          
2005-03-12 12   20.1   109.8     967    3    75          
2005-03-12 18   20.6   109.4     967    3    75          
2005-03-12 18   20.6   109.4     967    3    75          
2005-03-12 18   20.6   109.4     967    3    75          
2005-03-13 00   21.0   109.0     967    3    75          
2005-03-13 00   21.0   109.0     967    3    75          
2005-03-13 00   21.0   109.0     967    3    75          
2005-03-13 06   21.3   108.7     976    2    65          
2005-03-13 06   21.3   108.7     976    2    65          
2005-03-13 06   21.3   108.7     976    2    65          
2005-03-13 12   21.5   108.3     987    1    50          
2005-03-13 18   21.5   107.9     994    1    40          
2005-03-14 00   21.3   107.4     997         35          
Winds are 1-min average.

Tropical cyclone tracks developed by Michael Bath using data from the Joint Typhoon Warning Centre Best Tracks and Google Maps.


[Australian Severe Weather index] [Copyright Notice] [Email Contacts] [Search This Site] [Privacy Policy]
Document: tropical_cyclone_willy.htm Updated: 28 June 2017